Aeroporto :
LOGIN :

Iscrizione | Disclaimer

   EN    FR    IT 

 










Sommario :    VFR   VFR Marginale   IFR   IFR Intensivo   IFR Molto Intensivo
Visibilità : 
Base nubi : 
>= 8 km
>= 3000ft
5 / 8 km
1000 / 3000 ft
1500m / 5 km
500 / 1000 ft
800 / 1500m
200 / 500 ft
< 800m
< 200 ft
Simboli :   Temporali  Nebbia  Neve Forte  Precipitazioni Forti  Vento > 20 kt
SIGMETs :   Varie  Temporali  Ghiacco  Turbolenza  Onda orograficha  Ceneri Vulcaniche






- Altitudine del aeroporto : 312 ft
- Codice IATA : SAW


LTFJ - Sabiha Gokcen

ULTIMO METAR :
  • 270120Z 24016KT CAVOK 16/05 Q1005 NOSIG

METARs OBSOLETI :
  • 270050Z 25018G28KT CAVOK 16/06 Q1006 NOSIG RMK RWY24 24017KT
  • 270020Z 26014KT CAVOK 16/06 Q1006 NOSIG RMK RWY24 24015KT
  • 262350Z 26016KT CAVOK 15/07 Q1007 NOSIG RMK RWY24 25018KT
  • 262320Z 26018KT CAVOK 15/07 Q1006 NOSIG RMK RWY24 25018KT
  • 262250Z 26021KT CAVOK 16/07 Q1006 NOSIG RMK RWY24 25024KT

TAF TAF LTFJ
Valido dal 27 a 00 ore il 28 a 00 ore UTC


262240Z 2700/2724 24020G32KT CAVOK
BECMG 2707/2711 25015KT SCT035 BKN100
TEMPO 2714/2718 29024G37KT -TSRA SCT018CB BKN025
BECMG 2718/2720 32013KT
TEMPO 2719/2723 -SHRA BKN030



MetMap, La meteo Aeronautica in un colpo d'occhio ! - Copyright ORBIFLY Dicembre 2007 - Disclaimer

ORBIFLY MET'MAP TEAM :

Programmazione e sviluppo : Alexandra Zaïnal
Concezione : Baudouin d'Aumeries
Aiuto per la programmazione : Marc-Olivier Méhu
Supporto tecnico e logistico : Manuel Goepfert
Aiuto per la traduzione : Arnaldo La Scala

Contatto : metmap@orbifly.com




FONTI E CREDITI :

   NOAA